Phoenix, AZ (85012)

9:45 AM MST on September 20, 2019 (GMT -0700)
Windsor Square | | Change Station

Elev 1138 ft 33.51 °N, 112.07 °W | Updated 16 seconds ago

Clear
Clear
88.7 °F
Feels Like 85 °F
N
0.22
Wind Variable Wind from NE
Gusts 2.5 mph

Today
High -- | Low -- °F
--% Chance of Precip.
Yesterday
High -- | Low -- °F
Precip. -- in
Pressure 29.77 in
Visibility 10.0 miles
Clouds Few 22000 ft
Heat Index 85 °F
Dew Point 45 °F
Humidity 22%
Rainfall 0.00 in
Snow Depth Not available.
6:14 AM 6:27 PM
Waning Gibbous, 65% visible
METAR KPHX 201551Z 09005KT 10SM FEW220 27/07 A2982 RMK AO2 SLP080 T02720072
Pressure 29.77 in
Visibility 10.0 miles
Clouds Few 22000 ft
Heat Index 85 °F
Dew Point 45 °F
Humidity 22%
Rainfall 0.00 in
Snow Depth Not available.
6:14 AM 6:27 PM
Waning Gibbous, 65% visible
METAR KPHX 201551Z 09005KT 10SM FEW220 27/07 A2982 RMK AO2 SLP080 T02720072

Get Severe Weather Alerts

Thanks for signing up!

Be on the lookout for a verification email in your inbox.

You'll start receiving the daily forecast at 6 AM.

×

10-Day Weather Forecast

Almanac

Astronomy

Sep. 20, 2019 Rise Set
Actual Time
Civil Twilight
Nautical Twilight
Astronomical Twilight
Moon
Length of Visible Light
Length of Day
Tomorrow will be .
, % of the Moon is Illuminated

Today's Extremes

State Highs State Lows

Community

WunderPhotos

Category 6

Welcome to Category 6. This is the collective home for Weather Underground's featured writeups by Dr. Jeff Masters (right), Bob Henson (left), Chris Burt, and other regular contributors.

Nearby

Air Quality

  Air Quality AQ Index Pollutant
Not available.

Snow Depth

Station Depth Elevation

Earthquake Activity

City Distance Mag. Time & Date
Minimum magnitude displayed is 2.5.

Coastal Water Temperatures

Place Temperature

Stations

Nearby Weather Stations

Station Location Temp. Windchill Dew Point Humidity Wind Precip. Elev Updated Type
                   

Watches & Warnings

There are currently no watches in effect.